Time;durP1;ratioP1;P1;durP2;ratioP2;P2;SDS_P1;SDS_P2;PMS_P1;PMS_P2;Temp;Humidity;BMP_temperature;BMP_pressure;BME280_temperature;BME280_humidity;BME280_pressure;Samples;Min_cycle;Max_cycle;Signal;HPM_P1;HPM_P2
2022/10/27 00:00:35;;;;;;;8.18;2.63;;;16.90;99.90;;;;;;4989832;28;20473;-73
2022/10/27 00:03:00;;;;;;;12.43;2.63;;;16.90;99.90;;;;;;4989570;28;20094;-72
2022/10/27 00:05:26;;;;;;;10.50;2.10;;;16.80;99.90;;;;;;4971680;28;20113;-73
2022/10/27 00:07:52;;;;;;;9.40;2.30;;;16.80;99.90;;;;;;4989296;28;20058;-73
2022/10/27 00:10:18;;;;;;;9.80;2.20;;;16.80;99.90;;;;;;4989209;28;20035;-73
2022/10/27 00:12:44;;;;;;;8.82;2.00;;;16.90;99.90;;;;;;4988817;28;20400;-73
2022/10/27 00:15:11;;;;;;;8.25;2.05;;;16.80;99.90;;;;;;4989386;28;20038;-73
2022/10/27 00:17:37;;;;;;;11.98;2.35;;;16.80;99.90;;;;;;4989315;28;20530;-72
2022/10/27 00:20:03;;;;;;;9.55;1.90;;;16.90;99.90;;;;;;4989210;28;20110;-72
2022/10/27 00:22:29;;;;;;;8.82;1.83;;;16.90;99.90;;;;;;4971183;28;20030;-73
2022/10/27 00:24:54;;;;;;;8.70;2.03;;;16.90;99.90;;;;;;4988364;28;20089;-73
2022/10/27 00:27:20;;;;;;;8.05;2.03;;;16.90;99.90;;;;;;4988577;28;20118;-73
2022/10/27 00:29:46;;;;;;;8.57;2.10;;;16.90;99.90;;;;;;4988676;28;20326;-73
2022/10/27 00:32:11;;;;;;;9.45;1.83;;;16.80;99.90;;;;;;4988687;28;20113;-74
2022/10/27 00:34:37;;;;;;;10.15;1.90;;;16.80;99.90;;;;;;4988892;28;20389;-73
2022/10/27 00:37:02;;;;;;;8.48;2.00;;;16.90;99.90;;;;;;4988940;28;20704;-76
2022/10/27 00:39:28;;;;;;;8.27;1.88;;;16.90;99.90;;;;;;4970887;28;20034;-72
2022/10/27 00:41:53;;;;;;;8.52;2.25;;;16.90;99.90;;;;;;4969481;28;20030;-73
2022/10/27 00:44:37;;;;;;;11.73;2.10;;;16.90;99.90;;;;;;4967892;28;20506;-73
2022/10/27 00:47:10;;;;;;;9.63;2.10;;;16.90;99.90;;;;;;4969358;28;20680;-73
2022/10/27 00:49:58;;;;;;;11.07;2.17;;;16.90;99.90;;;;;;4968972;28;20059;-72
2022/10/27 00:52:44;;;;;;;7.03;2.13;;;16.90;99.90;;;;;;4969581;28;20096;-73
2022/10/27 00:55:13;;;;;;;12.75;2.20;;;16.90;99.90;;;;;;4967348;28;20065;-72
2022/10/27 00:57:41;;;;;;;8.48;2.00;;;16.80;99.90;;;;;;4968885;28;20031;-73
2022/10/27 01:00:08;;;;;;;8.77;2.30;;;16.90;99.90;;;;;;4969064;28;20045;-72
2022/10/27 01:02:35;;;;;;;7.72;2.22;;;16.80;99.90;;;;;;4951888;28;20121;-73
2022/10/27 01:05:05;;;;;;;8.27;2.10;;;16.90;99.90;;;;;;4967830;28;20118;-72
2022/10/27 01:07:31;;;;;;;10.27;2.20;;;16.80;99.90;;;;;;4951186;28;20034;-72
2022/10/27 01:09:58;;;;;;;7.35;1.67;;;16.90;99.90;;;;;;4965977;28;20035;-73
2022/10/27 01:12:23;;;;;;;7.32;1.95;;;16.90;99.90;;;;;;4982771;28;20062;-72
2022/10/27 01:14:50;;;;;;;8.55;1.80;;;16.90;99.90;;;;;;4975268;28;20046;-73
2022/10/27 01:17:49;;;;;;;7.03;1.60;;;16.90;99.90;;;;;;4976890;28;20062;-72
2022/10/27 01:20:39;;;;;;;9.82;1.48;;;16.90;99.90;;;;;;4968133;28;20034;-73
2022/10/27 01:23:29;;;;;;;8.85;2.10;;;16.90;99.90;;;;;;4968292;28;20031;-73
2022/10/27 01:26:28;;;;;;;6.75;1.63;;;16.90;99.90;;;;;;4968271;28;20044;-73
2022/10/27 01:28:54;;;;;;;;;;;16.90;99.90;;;;;;4987152;28;20029;-73
2022/10/27 01:31:22;;;;;;;8.48;1.55;;;16.90;99.90;;;;;;4987807;28;19921;-73
2022/10/27 01:34:23;;;;;;;7.53;1.83;;;17.00;99.90;;;;;;4970483;28;20128;-73
2022/10/27 01:36:53;;;;;;;9.65;1.73;;;16.90;99.90;;;;;;4969561;28;20292;-73
2022/10/27 01:39:47;;;;;;;8.30;1.77;;;16.90;99.90;;;;;;4970137;28;20136;-73
2022/10/27 01:42:22;;;;;;;4.78;1.50;;;16.90;99.90;;;;;;4988019;28;20053;-73
2022/10/27 01:44:51;;;;;;;4.22;1.30;;;17.00;99.90;;;;;;4987642;28;20038;-73
2022/10/27 01:47:18;;;;;;;9.38;1.63;;;17.00;99.90;;;;;;4987364;28;20026;-73
2022/10/27 01:49:43;;;;;;;10.60;1.80;;;17.00;99.90;;;;;;4970149;28;20039;-73
2022/10/27 01:52:39;;;;;;;6.93;1.50;;;17.10;99.90;;;;;;4987654;28;20114;-73
2022/10/27 01:55:09;;;;;;;7.57;2.30;;;17.10;99.90;;;;;;4969796;28;20097;-73
2022/10/27 01:57:42;;;;;;;7.32;2.25;;;17.00;99.90;;;;;;4987582;28;20117;-73
2022/10/27 02:00:08;;;;;;;7.80;1.95;;;16.90;99.90;;;;;;4969930;28;20035;-73
2022/10/27 02:02:47;;;;;;;7.25;1.65;;;16.90;99.90;;;;;;4987376;28;20030;-73
2022/10/27 02:05:43;;;;;;;11.18;1.85;;;16.80;99.90;;;;;;4970115;28;20088;-73
2022/10/27 02:08:19;;;;;;;6.13;1.52;;;16.70;99.90;;;;;;4970203;28;20053;-72
2022/10/27 02:11:05;;;;;;;7.20;1.48;;;16.60;99.90;;;;;;4987434;28;20044;-72
2022/10/27 02:13:34;;;;;;;6.65;1.50;;;16.60;99.90;;;;;;4987480;28;20042;-73
2022/10/27 02:16:07;;;;;;;8.57;1.80;;;16.60;99.90;;;;;;4987590;28;20266;-73
2022/10/27 02:18:37;;;;;;;8.98;1.95;;;16.50;99.90;;;;;;4987547;28;20259;-73
2022/10/27 02:21:07;;;;;;;6.22;2.28;;;16.40;99.90;;;;;;4987130;28;20134;-73
2022/10/27 02:23:34;;;;;;;9.02;1.80;;;16.40;99.90;;;;;;4969653;28;20034;-73
2022/10/27 02:26:32;;;;;;;7.88;2.00;;;16.30;99.90;;;;;;4987556;28;20066;-73
2022/10/27 02:29:05;;;;;;;18.88;7.10;;;16.30;99.90;;;;;;4987357;28;20485;-73
2022/10/27 02:31:37;;;;;;;18.90;5.65;;;16.40;99.90;;;;;;4987138;28;20033;-73
2022/10/27 02:34:04;;;;;;;20.75;6.00;;;16.30;99.90;;;;;;4969783;28;20125;-73
2022/10/27 02:36:30;;;;;;;14.63;4.18;;;16.30;99.90;;;;;;4986958;28;20019;-73
2022/10/27 02:38:55;;;;;;;9.88;2.80;;;16.30;99.90;;;;;;4987175;28;20081;-73
2022/10/27 02:41:21;;;;;;;6.90;1.70;;;16.30;99.90;;;;;;4969394;28;20041;-72
2022/10/27 02:43:47;;;;;;;10.75;1.83;;;16.20;99.90;;;;;;4987297;28;20046;-72
2022/10/27 02:46:13;;;;;;;8.98;1.70;;;16.20;99.90;;;;;;4987825;28;20034;-73
2022/10/27 02:48:38;;;;;;;7.95;1.55;;;16.20;99.90;;;;;;4972931;28;20030;-73
2022/10/27 02:51:04;;;;;;;6.85;2.35;;;16.20;99.90;;;;;;4973057;28;20126;-73
2022/10/27 02:53:29;;;;;;;8.70;1.98;;;16.20;99.90;;;;;;4990857;28;20124;-73
2022/10/27 02:55:55;;;;;;;7.75;1.50;;;16.10;99.90;;;;;;4990884;28;20049;-73
2022/10/27 02:58:21;;;;;;;9.77;2.38;;;16.10;99.90;;;;;;4990801;28;20109;-72
2022/10/27 03:00:46;;;;;;;8.35;1.85;;;16.10;99.90;;;;;;4990468;28;20057;-73
2022/10/27 03:03:12;;;;;;;9.55;1.67;;;16.10;99.90;;;;;;4973104;28;20026;-73
2022/10/27 03:05:37;;;;;;;9.13;2.22;;;16.10;99.90;;;;;;4973233;28;20031;-73
2022/10/27 03:08:03;;;;;;;8.60;2.17;;;16.10;99.90;;;;;;4973009;28;20374;-73
2022/10/27 03:10:29;;;;;;;10.75;2.20;;;16.00;99.90;;;;;;4972652;28;20031;-72
2022/10/27 03:12:54;;;;;;;10.15;2.40;;;16.00;99.90;;;;;;4972794;28;20129;-73
2022/10/27 03:15:20;;;;;;;7.25;2.25;;;15.90;99.90;;;;;;4989944;28;20042;-73
2022/10/27 03:17:47;;;;;;;9.45;2.55;;;15.80;99.90;;;;;;4967508;28;20126;-72
2022/10/27 03:20:14;;;;;;;8.25;1.98;;;15.80;99.90;;;;;;4985192;28;20031;-72
2022/10/27 03:22:40;;;;;;;8.93;2.08;;;15.70;99.90;;;;;;4987005;28;20065;-72
2022/10/27 03:25:06;;;;;;;7.80;2.42;;;15.70;99.90;;;;;;4989768;28;20041;-72
2022/10/27 03:27:32;;;;;;;10.68;2.10;;;15.70;99.90;;;;;;4990029;28;20034;-73
2022/10/27 03:29:58;;;;;;;6.40;2.10;;;15.70;99.90;;;;;;4989846;28;20067;-73
2022/10/27 03:32:23;;;;;;;9.10;1.70;;;15.60;99.90;;;;;;4990451;28;20026;-73
2022/10/27 03:34:49;;;;;;;6.55;1.85;;;15.60;99.90;;;;;;4989618;28;20104;-73
2022/10/27 03:37:14;;;;;;;9.60;2.05;;;15.70;99.90;;;;;;4990389;28;20387;-73
2022/10/27 03:39:40;;;;;;;8.85;2.63;;;15.70;99.90;;;;;;4990209;28;20096;-73
2022/10/27 03:42:06;;;;;;;9.32;2.10;;;15.70;99.90;;;;;;4972291;28;20041;-73
2022/10/27 03:44:31;;;;;;;7.35;1.90;;;15.70;99.90;;;;;;4989625;28;20369;-72
2022/10/27 03:46:57;;;;;;;6.65;2.10;;;15.70;99.90;;;;;;4971657;28;20030;-72
2022/10/27 03:49:22;;;;;;;7.60;1.88;;;15.80;99.90;;;;;;4972049;28;20033;-72
2022/10/27 03:51:48;;;;;;;7.28;1.67;;;15.80;99.90;;;;;;4972227;28;21087;-73
2022/10/27 03:54:14;;;;;;;8.40;1.65;;;15.90;99.90;;;;;;4971993;28;20607;-73
2022/10/27 03:56:39;;;;;;;7.45;1.70;;;15.90;99.90;;;;;;4971478;28;20030;-73
2022/10/27 03:59:05;;;;;;;9.80;1.88;;;15.90;99.90;;;;;;5003123;28;20030;-73
2022/10/27 04:01:33;;;;;;;11.10;1.90;;;15.90;99.90;;;;;;4989692;28;20061;-73
2022/10/27 04:03:58;;;;;;;9.80;2.03;;;15.90;99.90;;;;;;4989683;28;20065;-73
2022/10/27 04:06:24;;;;;;;6.65;1.63;;;15.90;99.90;;;;;;4989209;28;20026;-72
2022/10/27 04:08:50;;;;;;;9.45;1.70;;;15.90;99.90;;;;;;4989214;28;20433;-73
2022/10/27 04:11:16;;;;;;;7.63;2.08;;;15.90;99.90;;;;;;4971794;28;20026;-73
2022/10/27 04:13:41;;;;;;;7.43;1.77;;;15.90;99.90;;;;;;4989423;28;20125;-73
2022/10/27 04:16:08;;;;;;;8.52;1.80;;;15.90;99.90;;;;;;4989335;28;20046;-72
2022/10/27 04:18:33;;;;;;;9.63;2.15;;;16.00;99.90;;;;;;4989224;28;20034;-73
2022/10/27 04:21:03;;;;;;;8.00;1.73;;;16.00;99.90;;;;;;4989005;28;20530;-73
2022/10/27 04:23:29;;;;;;;9.60;2.22;;;16.00;99.90;;;;;;4989017;28;20038;-73
2022/10/27 04:25:55;;;;;;;9.43;1.60;;;16.00;99.90;;;;;;4988783;28;20034;-73
2022/10/27 04:28:21;;;;;;;9.27;1.98;;;16.10;99.90;;;;;;4988541;28;20038;-73
2022/10/27 04:30:46;;;;;;;8.35;2.17;;;16.10;99.90;;;;;;4971786;28;20038;-73
2022/10/27 04:33:12;;;;;;;11.52;2.10;;;16.10;99.90;;;;;;4971015;28;20114;-73
2022/10/27 04:35:38;;;;;;;6.25;1.60;;;16.10;99.90;;;;;;4988726;28;20045;-72
2022/10/27 04:38:03;;;;;;;9.93;2.03;;;16.10;99.90;;;;;;4988830;28;20569;-72
2022/10/27 04:40:29;;;;;;;8.80;1.83;;;16.10;99.90;;;;;;4988713;28;20076;-73
2022/10/27 04:42:55;;;;;;;9.95;2.00;;;16.10;99.90;;;;;;4988536;28;20034;-73
2022/10/27 04:45:20;;;;;;;6.75;1.80;;;16.10;99.90;;;;;;4988811;28;20031;-72
2022/10/27 04:47:46;;;;;;;7.13;1.75;;;16.10;99.90;;;;;;4971526;28;20030;-73
2022/10/27 04:50:13;;;;;;;8.95;2.20;;;16.10;99.90;;;;;;4988173;28;20088;-73
2022/10/27 04:52:40;;;;;;;8.15;1.60;;;16.10;99.90;;;;;;4988714;28;20026;-73
2022/10/27 04:55:06;;;;;;;8.38;2.15;;;16.10;99.90;;;;;;4988386;28;20037;-72
2022/10/27 04:57:31;;;;;;;8.40;2.20;;;16.10;99.90;;;;;;4988358;28;20034;-72
2022/10/27 04:59:57;;;;;;;9.10;1.80;;;16.10;99.90;;;;;;4970952;28;20155;-73
2022/10/27 05:02:22;;;;;;;9.32;2.20;;;16.10;99.90;;;;;;4988662;28;20652;-73
2022/10/27 05:04:48;;;;;;;8.63;1.73;;;16.10;99.90;;;;;;4988364;28;20037;-73
2022/10/27 05:07:13;;;;;;;9.75;1.98;;;16.10;99.90;;;;;;4988194;28;20033;-72
2022/10/27 05:09:39;;;;;;;8.15;1.70;;;16.10;99.90;;;;;;4987943;28;20386;-73
2022/10/27 05:12:05;;;;;;;10.77;1.80;;;16.10;99.90;;;;;;4987700;28;20034;-73
2022/10/27 05:14:30;;;;;;;11.32;1.88;;;16.10;99.90;;;;;;4988006;28;20038;-72
2022/10/27 05:16:56;;;;;;;9.40;1.90;;;16.10;99.90;;;;;;4988259;28;20038;-72
2022/10/27 05:19:21;;;;;;;10.65;1.83;;;16.10;99.90;;;;;;4970295;28;20034;-72
2022/10/27 05:21:47;;;;;;;7.72;1.70;;;16.10;99.90;;;;;;4968283;28;20042;-73
2022/10/27 05:24:13;;;;;;;8.88;2.00;;;16.10;99.90;;;;;;4984882;28;20062;-73
2022/10/27 05:26:39;;;;;;;9.93;2.53;;;16.10;99.90;;;;;;4968148;28;20045;-73
2022/10/27 05:29:05;;;;;;;11.25;2.05;;;16.20;99.90;;;;;;4987734;28;20030;-73
2022/10/27 05:31:30;;;;;;;8.57;1.60;;;16.10;99.90;;;;;;4970256;28;20030;-72
2022/10/27 05:33:56;;;;;;;5.47;1.45;;;16.20;99.90;;;;;;4988169;28;20042;-72
2022/10/27 05:36:21;;;;;;;7.97;1.52;;;16.20;99.90;;;;;;4987801;28;20033;-72
2022/10/27 05:38:47;;;;;;;9.65;1.70;;;16.20;99.90;;;;;;4987594;28;20174;-73
2022/10/27 05:41:13;;;;;;;10.68;1.83;;;16.20;99.90;;;;;;4987131;28;20113;-73
2022/10/27 05:43:40;;;;;;;8.05;2.35;;;16.20;99.90;;;;;;4969888;28;20042;-73
2022/10/27 05:46:08;;;;;;;9.60;1.75;;;16.20;99.90;;;;;;4970259;28;20078;-72
2022/10/27 05:48:34;;;;;;;9.52;2.28;;;16.20;99.90;;;;;;4987582;28;20034;-72
2022/10/27 05:51:00;;;;;;;9.90;2.08;;;16.30;99.90;;;;;;4987286;28;20033;-72
2022/10/27 05:53:25;;;;;;;8.10;2.00;;;16.20;99.90;;;;;;4987322;28;20037;-72
2022/10/27 05:55:53;;;;;;;7.28;1.92;;;16.30;99.90;;;;;;4987844;28;20038;-72
2022/10/27 05:58:18;;;;;;;13.07;2.47;;;16.20;99.90;;;;;;4970354;28;20124;-72
2022/10/27 06:00:44;;;;;;;13.40;2.35;;;16.20;99.90;;;;;;4987627;28;20485;-72
2022/10/27 06:03:19;;;;;;;9.77;1.95;;;16.20;99.90;;;;;;4962001;28;20030;-71
2022/10/27 06:05:45;;;;;;;10.60;2.22;;;16.20;99.90;;;;;;4969239;28;20405;-72
2022/10/27 06:08:10;;;;;;;10.85;2.60;;;16.20;99.90;;;;;;4986999;28;20050;-71
2022/10/27 06:10:36;;;;;;;9.68;2.20;;;16.20;99.90;;;;;;4987816;28;20041;-72
2022/10/27 06:13:03;;;;;;;13.30;2.92;;;16.20;99.90;;;;;;4986182;28;20034;-72
2022/10/27 06:15:29;;;;;;;9.48;2.22;;;16.20;99.90;;;;;;4969986;28;20479;-72
2022/10/27 06:17:55;;;;;;;15.13;3.15;;;16.20;99.90;;;;;;4970029;28;20038;-72
2022/10/27 06:20:21;;;;;;;10.25;2.17;;;16.10;99.90;;;;;;4987591;28;20727;-71
2022/10/27 06:22:46;;;;;;;12.98;2.63;;;16.10;99.90;;;;;;4989805;28;20804;-72
2022/10/27 06:25:12;;;;;;;9.55;2.13;;;16.10;99.90;;;;;;4991500;28;20076;-72
2022/10/27 06:27:38;;;;;;;8.65;2.50;;;16.00;99.90;;;;;;4991611;28;20505;-72
2022/10/27 06:30:04;;;;;;;7.60;2.05;;;16.00;99.90;;;;;;4991792;28;20109;-72
2022/10/27 06:32:29;;;;;;;8.73;1.88;;;16.00;99.90;;;;;;4991498;28;20109;-72
2022/10/27 06:34:55;;;;;;;5.75;1.60;;;16.00;99.90;;;;;;4991512;28;20121;-72
2022/10/27 06:37:20;;;;;;;11.43;2.53;;;16.00;99.90;;;;;;4991451;28;20065;-72
2022/10/27 06:39:46;;;;;;;8.10;2.20;;;16.00;99.90;;;;;;4973942;28;20041;-73
2022/10/27 06:42:12;;;;;;;8.82;2.40;;;15.90;99.90;;;;;;4990096;28;20689;-73
2022/10/27 06:44:37;;;;;;;13.50;2.83;;;15.90;99.90;;;;;;4991443;28;20492;-73
2022/10/27 06:47:03;;;;;;;10.48;2.35;;;15.80;99.90;;;;;;4990610;28;20038;-73
2022/10/27 06:49:28;;;;;;;11.05;2.50;;;15.90;99.90;;;;;;4973330;28;20034;-72
2022/10/27 06:51:54;;;;;;;10.10;2.72;;;15.80;99.90;;;;;;4973584;28;20084;-73
2022/10/27 06:54:20;;;;;;;10.35;2.33;;;15.80;99.90;;;;;;4991015;28;20042;-73
2022/10/27 06:56:46;;;;;;;9.85;2.45;;;15.80;99.90;;;;;;4990535;28;20038;-73
2022/10/27 06:59:11;;;;;;;9.88;2.28;;;15.80;99.90;;;;;;4990412;28;20030;-72
2022/10/27 07:01:37;;;;;;;11.98;2.78;;;15.70;99.90;;;;;;4973539;28;20034;-73
2022/10/27 07:04:03;;;;;;;11.90;2.55;;;15.70;99.90;;;;;;4991136;28;20045;-73
2022/10/27 07:06:28;;;;;;;10.48;2.50;;;15.70;99.90;;;;;;4990953;28;20527;-72
2022/10/27 07:08:54;;;;;;;10.57;2.25;;;15.70;99.90;;;;;;4973633;28;20056;-73
2022/10/27 07:11:20;;;;;;;12.95;2.78;;;15.70;99.90;;;;;;4973363;28;20033;-73
2022/10/27 07:13:45;;;;;;;12.77;2.60;;;15.70;99.90;;;;;;4990989;28;20061;-73
2022/10/27 07:16:11;;;;;;;10.32;3.03;;;15.70;99.90;;;;;;4990945;28;20085;-73
2022/10/27 07:18:37;;;;;;;9.65;2.63;;;15.70;99.90;;;;;;4990622;28;20038;-73
2022/10/27 07:21:04;;;;;;;14.73;3.22;;;15.80;99.90;;;;;;4988908;28;20030;-72
2022/10/27 07:23:30;;;;;;;11.40;3.17;;;15.80;99.90;;;;;;4978568;28;20041;-75
2022/10/27 07:25:55;;;;;;;13.35;2.90;;;15.90;99.90;;;;;;4990909;28;20042;-74
2022/10/27 07:28:21;;;;;;;16.63;2.90;;;15.90;99.90;;;;;;4989322;28;20027;-72
2022/10/27 07:30:47;;;;;;;10.95;3.08;;;15.90;99.90;;;;;;4989417;28;20038;-73
2022/10/27 07:33:13;;;;;;;16.23;3.22;;;15.90;99.90;;;;;;4988760;28;20030;-73
2022/10/27 07:35:39;;;;;;;10.98;2.80;;;15.90;99.90;;;;;;4989564;28;20042;-72
2022/10/27 07:38:05;;;;;;;13.68;3.28;;;15.90;99.90;;;;;;4989999;28;20042;-72
2022/10/27 07:40:31;;;;;;;14.80;3.00;;;15.90;99.90;;;;;;4979273;28;20019;-72
2022/10/27 07:42:58;;;;;;;17.30;6.38;;;15.90;99.90;;;;;;4970075;28;20288;-72
2022/10/27 07:45:25;;;;;;;11.63;3.10;;;15.90;99.90;;;;;;4970119;28;20039;-72
2022/10/27 07:47:53;;;;;;;16.80;3.72;;;15.90;99.90;;;;;;4969686;28;20046;-72
2022/10/27 07:50:20;;;;;;;14.50;4.60;;;16.00;99.90;;;;;;4969975;28;20093;-72
2022/10/27 07:52:51;;;;;;;26.35;11.10;;;16.00;99.90;;;;;;4969122;28;20618;-72
2022/10/27 07:55:19;;;;;;;16.13;4.82;;;16.00;99.90;;;;;;4968540;28;20039;-72
2022/10/27 07:57:45;;;;;;;13.88;2.92;;;16.00;99.90;;;;;;4968602;28;20038;-72
2022/10/27 08:00:16;;;;;;;16.50;5.05;;;16.00;99.90;;;;;;4970086;28;20077;-73
2022/10/27 08:02:43;;;;;;;13.60;3.30;;;15.90;99.90;;;;;;4969941;28;20031;-73
2022/10/27 08:05:09;;;;;;;13.18;2.97;;;16.00;99.90;;;;;;4968317;28;20512;-73
2022/10/27 08:07:35;;;;;;;13.13;3.58;;;16.20;99.90;;;;;;4970145;28;20035;-73
2022/10/27 08:10:02;;;;;;;10.93;3.30;;;16.20;99.90;;;;;;4969958;28;20049;-74
2022/10/27 08:12:28;;;;;;;13.30;3.38;;;16.30;99.90;;;;;;4968622;28;20577;-73
2022/10/27 08:14:53;;;;;;;16.92;3.78;;;16.40;99.90;;;;;;4969804;28;20034;-73
2022/10/27 08:17:19;;;;;;;12.85;3.08;;;16.50;99.90;;;;;;4969568;28;20070;-74
2022/10/27 08:19:45;;;;;;;13.07;3.90;;;16.60;99.90;;;;;;4969769;28;20497;-73
2022/10/27 08:22:10;;;;;;;12.68;2.97;;;16.60;99.90;;;;;;4951595;28;20664;-73
2022/10/27 08:24:36;;;;;;;23.70;6.72;;;16.70;99.90;;;;;;4958330;28;20031;-73
2022/10/27 08:27:02;;;;;;;16.20;4.70;;;16.70;99.90;;;;;;4968206;28;20065;-73
2022/10/27 08:29:27;;;;;;;24.05;7.72;;;16.80;99.90;;;;;;4969545;28;20466;-73
2022/10/27 08:31:53;;;;;;;21.20;4.93;;;17.00;99.90;;;;;;4969955;28;20077;-73
2022/10/27 08:34:19;;;;;;;23.52;7.03;;;17.10;99.90;;;;;;4968264;28;20649;-73
2022/10/27 08:36:44;;;;;;;30.92;9.23;;;17.10;99.90;;;;;;4969082;28;20063;-73
2022/10/27 08:39:11;;;;;;;18.10;6.32;;;17.10;99.90;;;;;;4969069;28;20460;-72
2022/10/27 08:41:42;;;;;;;22.38;7.50;;;17.10;99.90;;;;;;4968904;28;20062;-73
2022/10/27 08:44:32;;;;;;;17.27;5.70;;;17.10;99.90;;;;;;4968592;28;20121;-73
2022/10/27 08:47:04;;;;;;;21.90;7.95;;;17.20;99.90;;;;;;4968101;28;20547;-73
2022/10/27 08:50:04;;;;;;;13.60;4.05;;;17.30;99.90;;;;;;4970827;28;20448;-72
2022/10/27 08:52:43;;;;;;;13.40;3.58;;;17.50;99.90;;;;;;4970034;28;20038;-73
2022/10/27 08:55:11;;;;;;;15.93;4.10;;;17.80;99.90;;;;;;4988988;28;20031;-74
2022/10/27 08:57:37;;;;;;;13.68;3.45;;;18.10;99.90;;;;;;4989111;28;20042;-73
2022/10/27 09:00:05;;;;;;;12.43;3.20;;;18.20;99.90;;;;;;4988836;28;20583;-74
2022/10/27 09:02:40;;;;;;;13.40;3.45;;;18.20;99.90;;;;;;4988764;28;20460;-74
2022/10/27 09:05:37;;;;;;;17.17;3.38;;;18.30;99.90;;;;;;4970795;28;20133;-73
2022/10/27 09:08:30;;;;;;;16.10;3.35;;;18.40;99.90;;;;;;4971115;28;20030;-74
2022/10/27 09:11:24;;;;;;;11.23;3.15;;;18.60;99.90;;;;;;4988179;28;20030;-74
2022/10/27 09:14:13;;;;;;;12.40;3.05;;;18.80;99.90;;;;;;4988038;28;20380;-73
2022/10/27 09:17:09;;;;;;;13.90;3.13;;;19.00;99.90;;;;;;4970435;28;20050;-74
2022/10/27 09:19:43;;;;;;;14.75;3.63;;;19.10;99.90;;;;;;4988093;28;20031;-73
2022/10/27 09:22:18;;;;;;;14.23;3.30;;;19.30;99.90;;;;;;4988475;28;20033;-73
2022/10/27 09:24:55;;;;;;;13.43;3.13;;;19.40;99.90;;;;;;4988459;28;20209;-72
2022/10/27 09:27:21;;;;;;;12.15;2.78;;;19.70;99.90;;;;;;4970283;28;20033;-73
2022/10/27 09:29:49;;;;;;;14.32;2.90;;;19.90;99.90;;;;;;4987829;28;20585;-74
2022/10/27 09:32:22;;;;;;;12.13;3.20;;;20.10;99.90;;;;;;4988217;28;20031;-73
2022/10/27 09:34:53;;;;;;;17.38;3.75;;;20.40;99.90;;;;;;4987608;28;20037;-76
2022/10/27 09:37:19;;;;;;;13.77;3.38;;;20.50;99.90;;;;;;4970171;28;20130;-74
2022/10/27 09:39:50;;;;;;;12.75;3.08;;;20.40;99.90;;;;;;4970381;28;20086;-79
2022/10/27 09:42:17;;;;;;;10.77;3.35;;;20.40;99.90;;;;;;4970596;28;20026;-77
2022/10/27 09:44:52;;;;;;;11.95;3.47;;;20.40;99.90;;;;;;4970526;28;20038;-75
2022/10/27 09:47:18;;;;;;;11.95;3.40;;;20.40;99.90;;;;;;4986038;28;20081;-73
2022/10/27 09:49:46;;;;;;;16.35;3.17;;;20.40;99.90;;;;;;4983664;28;20084;-74
2022/10/27 09:52:16;;;;;;;16.42;3.53;;;20.50;99.90;;;;;;4984564;28;20437;-74
2022/10/27 09:55:00;;;;;;;15.25;3.10;;;20.50;99.90;;;;;;4987489;28;20037;-73
2022/10/27 09:57:31;;;;;;;14.68;3.45;;;20.50;99.90;;;;;;4989855;28;20397;-73
2022/10/27 10:00:01;;;;;;;12.52;2.80;;;20.60;99.90;;;;;;4974269;28;20440;-74
2022/10/27 10:02:31;;;;;;;;;;;20.70;99.90;;;;;;4991933;28;20035;-73
2022/10/27 10:04:57;;;;;;;13.23;3.35;;;20.80;99.90;;;;;;4991564;28;19917;-73
2022/10/27 10:07:47;;;;;;;13.73;3.22;;;21.00;99.90;;;;;;4973775;28;20033;-73
2022/10/27 10:10:23;;;;;;;12.13;3.20;;;21.00;99.90;;;;;;4992216;28;20062;-73
2022/10/27 10:13:11;;;;;;;15.63;3.50;;;21.10;99.90;;;;;;4974141;28;20194;-74
2022/10/27 10:15:43;;;;;;;15.85;3.53;;;21.20;99.90;;;;;;4991739;28;20517;-76
2022/10/27 10:18:27;;;;;;;16.40;3.50;;;21.50;99.90;;;;;;4989655;28;20030;-74
2022/10/27 10:21:12;;;;;;;10.48;3.10;;;21.40;99.90;;;;;;4986469;28;20042;-73
2022/10/27 10:23:51;;;;;;;16.88;3.10;;;21.30;99.90;;;;;;4991030;28;20038;-76
2022/10/27 10:26:28;;;;;;;14.85;3.25;;;21.20;99.90;;;;;;4989780;28;20069;-74
2022/10/27 10:29:12;;;;;;;14.23;3.10;;;21.10;99.90;;;;;;4991611;28;20073;-74
2022/10/27 10:31:37;;;;;;;10.60;3.13;;;21.30;99.90;;;;;;4991509;28;20046;-73
2022/10/27 10:34:07;;;;;;;15.48;3.38;;;22.20;99.90;;;;;;4991165;28;20092;-73
2022/10/27 10:36:38;;;;;;;8.68;2.92;;;23.30;96.90;;;;;;4988888;28;20117;-74
2022/10/27 10:39:21;;;;;;;15.57;3.35;;;23.10;97.50;;;;;;4981668;28;20042;-74
2022/10/27 10:42:06;;;;;;;13.02;3.88;;;22.50;97.70;;;;;;4986814;28;20030;-74
2022/10/27 10:44:32;;;;;;;14.85;4.10;;;21.90;99.60;;;;;;4991370;28;20105;-73
2022/10/27 10:46:58;;;;;;;14.35;3.38;;;21.60;99.90;;;;;;4989507;28;20141;-73
2022/10/27 10:49:48;;;;;;;16.30;3.45;;;21.30;99.90;;;;;;4990879;28;20035;-73
2022/10/27 10:52:23;;;;;;;13.50;3.50;;;21.30;99.90;;;;;;4991183;28;20030;-72
2022/10/27 10:54:49;;;;;;;13.10;3.90;;;21.20;99.90;;;;;;4989494;28;20092;-73
2022/10/27 10:57:45;;;;;;;18.33;3.67;;;21.40;99.90;;;;;;4972582;28;20092;-74
2022/10/27 11:00:18;;;;;;;14.43;3.50;;;21.70;99.90;;;;;;4973210;28;20038;-81
2022/10/27 11:03:00;;;;;;;13.20;3.30;;;22.00;99.90;;;;;;4990595;28;20047;-73
2022/10/27 11:05:57;;;;;;;12.55;3.35;;;22.50;99.20;;;;;;4990395;28;20045;-73
2022/10/27 11:08:28;;;;;;;13.02;3.40;;;23.00;97.00;;;;;;4991486;28;20109;-76
2022/10/27 11:10:56;;;;;;;11.70;2.78;;;23.40;95.20;;;;;;4990935;28;20064;-73
2022/10/27 11:13:29;;;;;;;14.45;3.10;;;23.60;95.00;;;;;;4970624;28;20447;-74
2022/10/27 11:16:00;;;;;;;16.10;3.35;;;23.60;94.80;;;;;;4986829;28;20400;-73
2022/10/27 11:18:29;;;;;;;16.88;3.70;;;23.60;95.20;;;;;;4987250;28;20026;-73
2022/10/27 11:21:05;;;;;;;15.63;3.55;;;22.90;96.60;;;;;;4990295;28;20038;-72
2022/10/27 11:23:50;;;;;;;13.45;3.50;;;22.10;99.10;;;;;;4990441;28;20030;-73
2022/10/27 11:26:21;;;;;;;12.55;3.40;;;21.60;99.90;;;;;;4990602;28;20113;-73
2022/10/27 11:29:09;;;;;;;12.93;3.40;;;21.40;99.90;;;;;;4990465;28;20165;-75
2022/10/27 11:31:57;;;;;;;14.00;4.10;;;21.30;99.90;;;;;;4972239;28;20031;-73
2022/10/27 11:35:00;;;;;;;13.90;3.20;;;21.20;99.90;;;;;;4989776;28;20044;-73
2022/10/27 11:37:44;;;;;;;13.25;3.78;;;21.10;99.90;;;;;;4989730;28;20038;-73
2022/10/27 11:40:21;;;;;;;12.40;3.30;;;21.00;99.90;;;;;;4972327;28;20380;-72
2022/10/27 11:43:00;;;;;;;10.93;3.85;;;21.00;99.90;;;;;;4990237;28;20030;-73
2022/10/27 11:45:36;;;;;;;14.40;3.45;;;21.10;99.90;;;;;;4972449;28;20045;-72
2022/10/27 11:48:11;;;;;;;14.05;3.25;;;21.00;99.90;;;;;;4989972;28;20079;-72
2022/10/27 11:50:44;;;;;;;15.50;3.63;;;21.20;99.90;;;;;;4972182;28;20030;-73
2022/10/27 11:53:10;;;;;;;16.48;4.00;;;21.20;99.90;;;;;;4972311;28;20388;-73
2022/10/27 11:55:47;;;;;;;17.80;4.03;;;21.20;99.90;;;;;;4989835;28;20488;-73
2022/10/27 11:58:46;;;;;;;21.98;3.72;;;21.30;99.90;;;;;;4989648;28;20045;-72
2022/10/27 12:01:20;;;;;;;14.73;3.97;;;21.30;99.90;;;;;;4989960;28;20441;-73
2022/10/27 12:04:08;;;;;;;16.70;4.07;;;21.30;99.90;;;;;;4972025;28;20040;-72
2022/10/27 12:06:57;;;;;;;16.63;3.72;;;21.10;99.90;;;;;;4989496;28;20492;-72
2022/10/27 12:09:54;;;;;;;16.77;4.43;;;20.90;99.90;;;;;;4944550;28;20258;-72
2022/10/27 12:12:31;;;;;;;15.82;3.95;;;20.70;99.90;;;;;;4983955;28;20038;-73
2022/10/27 12:15:13;;;;;;;20.27;4.00;;;20.60;99.90;;;;;;4971107;28;20038;-73
2022/10/27 12:17:58;;;;;;;19.55;4.15;;;20.50;99.90;;;;;;4989689;28;20098;-73
2022/10/27 12:20:33;;;;;;;14.40;3.55;;;20.50;99.90;;;;;;4971133;28;20555;-75
2022/10/27 12:23:10;;;;;;;11.68;4.13;;;20.40;99.90;;;;;;4988626;28;20033;-73
2022/10/27 12:26:01;;;;;;;16.65;4.38;;;20.30;99.90;;;;;;4988966;28;20030;-74
2022/10/27 12:28:27;;;;;;;18.30;4.55;;;20.30;99.90;;;;;;4989162;28;20492;-72
2022/10/27 12:30:57;;;;;;;15.05;4.05;;;20.30;99.90;;;;;;4989116;28;20038;-73
2022/10/27 12:33:37;;;;;;;15.90;4.15;;;20.20;99.90;;;;;;4971684;28;20485;-72
2022/10/27 12:36:39;;;;;;;21.58;4.63;;;20.30;99.90;;;;;;4989184;28;20558;-72
2022/10/27 12:39:19;;;;;;;16.65;4.28;;;20.30;99.90;;;;;;4980768;28;20821;-73
2022/10/27 12:41:48;;;;;;;13.73;3.80;;;20.20;99.90;;;;;;4989233;28;20030;-73
2022/10/27 12:44:20;;;;;;;17.33;5.07;;;20.10;99.90;;;;;;4989110;28;20527;-72
2022/10/27 12:46:55;;;;;;;17.90;4.47;;;20.20;99.90;;;;;;4971479;28;20030;-73
2022/10/27 12:49:39;;;;;;;15.70;4.10;;;20.20;99.90;;;;;;4988581;28;20053;-72
2022/10/27 12:52:14;;;;;;;15.77;4.75;;;20.10;99.90;;;;;;4988794;28;20064;-72
2022/10/27 12:55:03;;;;;;;27.25;5.07;;;20.10;99.90;;;;;;4988443;28;20719;-73
2022/10/27 12:57:46;;;;;;;20.58;4.78;;;20.00;99.90;;;;;;4988373;28;20042;-72
2022/10/27 13:00:20;;;;;;;13.70;4.65;;;20.00;99.90;;;;;;4987683;28;20037;-73